Time;durP1;ratioP1;P1;durP2;ratioP2;P2;SDS_P1;SDS_P2;PMS_P1;PMS_P2;Temp;Humidity;BMP_temperature;BMP_pressure;BME280_temperature;BME280_humidity;BME280_pressure;Samples;Min_cycle;Max_cycle;Signal;HPM_P1;HPM_P2
2022/04/19 00:00:30;;;;;;;6.10;3.17;;;6.00;99.90;;;;;;4961682;28;20235;-80
2022/04/19 00:02:56;;;;;;;5.77;3.50;;;6.00;99.90;;;;;;4959795;28;20209;-80
2022/04/19 00:05:24;;;;;;;7.37;3.93;;;5.90;99.90;;;;;;4992915;28;20668;-79
2022/04/19 00:07:50;;;;;;;6.20;3.40;;;5.90;99.90;;;;;;4966917;28;20198;-78
2022/04/19 00:10:17;;;;;;;5.93;3.40;;;5.90;99.90;;;;;;4967945;28;20901;-78
2022/04/19 00:12:45;;;;;;;5.93;3.50;;;5.90;99.90;;;;;;4959103;28;20190;-77
2022/04/19 00:15:13;;;;;;;4.67;3.20;;;5.90;99.90;;;;;;4971526;28;20215;-78
2022/04/19 00:17:39;;;;;;;5.43;3.50;;;6.00;99.90;;;;;;4964652;28;20216;-79
2022/04/19 00:20:07;;;;;;;6.53;3.40;;;6.00;99.90;;;;;;4973868;28;20210;-78
2022/04/19 00:22:33;;;;;;;6.50;3.27;;;6.00;99.90;;;;;;4990959;28;20766;-79
2022/04/19 00:25:02;;;;;;;7.53;3.93;;;6.00;99.90;;;;;;4989544;28;20222;-78
2022/04/19 00:27:29;;;;;;;6.17;3.80;;;5.90;99.90;;;;;;4962766;28;20188;-75
2022/04/19 00:29:56;;;;;;;5.63;3.73;;;5.80;99.90;;;;;;4972714;28;20190;-76
2022/04/19 00:32:23;;;;;;;7.17;3.80;;;5.80;99.90;;;;;;4970205;28;20208;-77
2022/04/19 00:34:51;;;;;;;7.10;3.73;;;5.70;99.90;;;;;;4973109;28;20229;-76
2022/04/19 00:37:19;;;;;;;5.43;3.60;;;5.70;99.90;;;;;;4970889;28;20377;-75
2022/04/19 00:39:46;;;;;;;6.23;3.70;;;5.70;99.90;;;;;;4964800;28;20204;-79
2022/04/19 00:42:12;;;;;;;9.27;4.10;;;5.60;99.90;;;;;;4969179;28;20693;-79
2022/04/19 00:44:39;;;;;;;6.40;3.90;;;5.60;99.90;;;;;;4961304;28;20197;-79
2022/04/19 00:47:07;;;;;;;5.63;3.37;;;5.70;99.90;;;;;;4974081;28;20228;-79
2022/04/19 00:49:37;;;;;;;5.73;3.60;;;5.50;99.90;;;;;;4976544;28;20280;-79
2022/04/19 00:52:05;;;;;;;4.83;3.17;;;5.50;99.90;;;;;;4969122;28;20212;-74
2022/04/19 00:54:33;;;;;;;6.03;3.53;;;5.50;99.90;;;;;;4972146;28;20197;-79
2022/04/19 00:57:00;;;;;;;9.10;3.77;;;5.40;99.90;;;;;;4971557;28;20224;-80
2022/04/19 00:59:27;;;;;;;5.20;3.47;;;5.30;99.90;;;;;;4960227;28;20220;-80
2022/04/19 01:01:54;;;;;;;7.27;3.60;;;5.30;99.90;;;;;;4969024;28;20204;-79
2022/04/19 01:04:21;;;;;;;6.17;3.67;;;5.20;99.90;;;;;;4962824;28;20205;-80
2022/04/19 01:06:48;;;;;;;6.43;3.70;;;5.10;99.90;;;;;;4970512;28;20197;-79
2022/04/19 01:09:15;;;;;;;6.23;3.97;;;5.20;99.90;;;;;;4971578;28;20219;-81
2022/04/19 01:14:28;;;;;;;7.63;4.20;;;5.00;99.90;;;;;;4958109;28;20202;-77
2022/04/19 01:16:56;;;;;;;5.43;3.57;;;5.00;99.90;;;;;;4970582;28;20623;-77
2022/04/19 01:19:23;;;;;;;6.50;3.40;;;4.90;99.90;;;;;;4976180;28;20207;-76
2022/04/19 01:21:54;;;;;;;6.07;3.63;;;4.80;99.90;;;;;;4973093;28;20211;-82
2022/04/19 01:24:22;;;;;;;6.13;3.53;;;4.80;99.90;;;;;;4976463;28;20200;-80
2022/04/19 01:26:53;;;;;;;5.63;3.67;;;4.80;99.90;;;;;;4974244;28;20209;-83
2022/04/19 01:29:20;;;;;;;10.00;4.17;;;4.70;99.90;;;;;;4973478;28;20557;-84
2022/04/19 01:31:47;;;;;;;7.43;4.00;;;4.70;99.90;;;;;;4972506;28;20193;-83
2022/04/19 01:34:14;;;;;;;6.13;4.10;;;4.70;99.90;;;;;;4965533;28;20204;-83
2022/04/19 01:36:41;;;;;;;6.87;3.60;;;4.70;99.90;;;;;;4972684;28;20223;-82
2022/04/19 01:39:10;;;;;;;4.10;3.20;;;4.70;99.90;;;;;;4970919;28;20207;-83
2022/04/19 01:41:38;;;;;;;5.27;3.50;;;4.60;99.90;;;;;;4973145;28;20242;-81
2022/04/19 01:44:06;;;;;;;5.37;3.63;;;4.60;99.90;;;;;;4973330;28;20202;-83
2022/04/19 01:46:34;;;;;;;4.93;3.33;;;4.60;99.90;;;;;;4973428;28;20207;-84
2022/04/19 01:49:02;;;;;;;5.23;3.70;;;4.60;99.90;;;;;;4972107;28;20542;-82
2022/04/19 01:51:29;;;;;;;7.93;3.83;;;4.70;99.90;;;;;;4973582;28;20245;-83
2022/04/19 01:53:56;;;;;;;6.47;3.60;;;4.60;99.90;;;;;;4973203;28;20214;-82
2022/04/19 01:56:23;;;;;;;6.23;3.43;;;4.70;99.90;;;;;;4972750;28;20220;-83
2022/04/19 01:58:50;;;;;;;6.03;3.77;;;4.60;99.90;;;;;;4972042;28;20202;-83
2022/04/19 02:01:17;;;;;;;7.10;3.60;;;4.60;99.90;;;;;;4974187;28;20231;-82
2022/04/19 02:03:44;;;;;;;6.37;3.87;;;4.60;99.90;;;;;;4973183;28;20214;-83
2022/04/19 02:06:12;;;;;;;6.57;4.17;;;4.60;99.90;;;;;;4972905;28;20197;-83
2022/04/19 02:08:39;;;;;;;7.00;4.00;;;4.70;99.90;;;;;;4973231;28;20213;-82
2022/04/19 02:11:06;;;;;;;6.07;4.20;;;4.60;99.90;;;;;;4973590;28;20229;-76
2022/04/19 02:13:33;;;;;;;6.90;4.10;;;4.60;99.90;;;;;;4974097;28;20573;-82
2022/04/19 02:16:00;;;;;;;7.57;4.20;;;4.50;99.90;;;;;;4994128;28;20295;-80
2022/04/19 02:18:27;;;;;;;10.30;5.20;;;4.50;99.90;;;;;;4991632;28;20689;-82
2022/04/19 02:20:55;;;;;;;9.40;5.40;;;4.50;99.90;;;;;;4994072;28;20310;-82
2022/04/19 02:23:25;;;;;;;7.47;4.87;;;4.40;99.90;;;;;;4989172;28;20203;-81
2022/04/19 02:25:54;;;;;;;9.93;5.07;;;4.40;99.90;;;;;;4972610;28;20239;-81
2022/04/19 02:28:22;;;;;;;8.57;5.13;;;4.30;99.90;;;;;;4971685;28;20199;-82
2022/04/19 02:30:50;;;;;;;7.37;5.30;;;4.30;99.90;;;;;;4989110;28;20212;-83
2022/04/19 02:33:17;;;;;;;8.37;5.37;;;4.00;99.90;;;;;;4989010;28;20639;-83
2022/04/19 02:35:44;;;;;;;8.53;5.13;;;3.80;99.90;;;;;;4989409;28;20216;-84
2022/04/19 02:38:11;;;;;;;7.43;4.60;;;3.60;99.90;;;;;;4988126;28;20228;-82
2022/04/19 02:40:37;;;;;;;5.80;4.60;;;3.50;99.90;;;;;;4989189;28;20201;-85
2022/04/19 02:43:04;;;;;;;6.70;4.17;;;3.40;99.90;;;;;;4973393;28;20222;-86
2022/04/19 02:45:31;;;;;;;4.83;4.10;;;3.20;99.90;;;;;;4989357;28;20210;-81
2022/04/19 02:48:06;;;;;;;6.27;4.33;;;3.20;99.90;;;;;;4972197;28;20541;-85
2022/04/19 02:50:39;;;;;;;5.93;4.47;;;3.20;99.90;;;;;;4973695;28;20203;-85
2022/04/19 02:53:06;;;;;;;6.93;4.73;;;3.20;99.90;;;;;;4994014;28;20210;-84
2022/04/19 02:55:33;;;;;;;7.10;4.33;;;3.00;99.90;;;;;;4983649;28;20260;-84
2022/04/19 02:58:00;;;;;;;6.77;4.53;;;3.00;99.90;;;;;;4995828;28;20229;-83
2022/04/19 03:00:27;;;;;;;6.67;4.43;;;3.00;99.90;;;;;;4991009;28;20229;-84
2022/04/19 03:02:54;;;;;;;6.60;4.23;;;2.90;99.90;;;;;;4973185;28;20585;-84
2022/04/19 03:05:21;;;;;;;6.40;4.33;;;2.90;99.90;;;;;;4989229;28;20675;-83
2022/04/19 03:07:48;;;;;;;6.00;4.10;;;2.90;99.90;;;;;;4989972;28;20194;-83
2022/04/19 03:10:16;;;;;;;5.17;3.90;;;2.90;99.90;;;;;;4987551;28;20644;-84
2022/04/19 03:12:46;;;;;;;5.07;3.73;;;2.90;99.90;;;;;;4974224;28;20302;-84
2022/04/19 03:15:12;;;;;;;6.20;3.67;;;2.90;99.90;;;;;;4989624;28;20199;-83
2022/04/19 03:17:40;;;;;;;5.40;3.80;;;2.90;99.90;;;;;;4990238;28;20234;-82
2022/04/19 03:20:08;;;;;;;5.27;3.90;;;2.90;99.90;;;;;;4988959;28;20210;-77
2022/04/19 03:28:09;;;;;;;5.87;3.77;;;2.80;99.90;;;;;;4977562;28;20195;-76
2022/04/19 03:30:37;;;;;;;5.43;3.53;;;2.90;99.90;;;;;;4992075;28;20201;-83
2022/04/19 03:33:05;;;;;;;5.10;3.50;;;2.80;99.90;;;;;;4977421;28;20220;-83
2022/04/19 03:35:36;;;;;;;5.43;3.50;;;2.80;99.90;;;;;;4995469;28;20207;-74
2022/04/19 03:38:04;;;;;;;5.87;4.10;;;2.80;99.90;;;;;;4999514;28;20222;-81
2022/04/19 03:40:31;;;;;;;5.00;3.60;;;2.80;99.90;;;;;;5001944;28;20198;-82
2022/04/19 03:42:58;;;;;;;4.33;3.13;;;2.80;99.90;;;;;;4992568;28;20237;-80
2022/04/19 03:45:25;;;;;;;4.57;3.30;;;2.70;99.90;;;;;;4999926;28;20197;-81
2022/04/19 03:47:53;;;;;;;4.97;3.60;;;2.60;99.90;;;;;;4999245;28;20206;-81
2022/04/19 03:50:20;;;;;;;4.67;3.60;;;2.50;99.90;;;;;;4991065;28;20206;-82
2022/04/19 03:52:47;;;;;;;6.57;4.20;;;2.60;99.90;;;;;;4991485;28;20226;-81
2022/04/19 03:55:13;;;;;;;5.50;3.80;;;2.70;99.90;;;;;;4991413;28;20206;-82
2022/04/19 03:57:40;;;;;;;5.33;3.50;;;2.70;99.90;;;;;;4991290;28;20233;-81
2022/04/19 04:00:07;;;;;;;4.23;3.33;;;2.70;99.90;;;;;;4990405;28;20232;-82
2022/04/19 04:02:34;;;;;;;5.00;3.43;;;2.70;99.90;;;;;;4976379;28;20212;-82
2022/04/19 04:05:03;;;;;;;5.50;4.30;;;2.80;99.90;;;;;;4974988;28;20260;-82
2022/04/19 04:07:30;;;;;;;5.07;3.57;;;2.80;99.90;;;;;;4959018;28;20221;-81
2022/04/19 04:09:57;;;;;;;6.73;4.13;;;2.80;99.90;;;;;;4975036;28;20186;-80
2022/04/19 04:12:23;;;;;;;5.50;4.03;;;2.80;99.90;;;;;;4976244;28;20289;-82
2022/04/19 04:14:50;;;;;;;4.70;3.77;;;2.80;99.90;;;;;;4991058;28;20215;-75
2022/04/19 04:17:19;;;;;;;4.93;3.83;;;2.80;99.90;;;;;;4991029;28;20210;-70
2022/04/19 04:19:49;;;;;;;5.57;4.13;;;2.90;99.90;;;;;;4989794;28;20318;-73
2022/04/19 04:22:15;;;;;;;4.07;3.33;;;2.90;99.90;;;;;;4976281;28;20305;-80
2022/04/19 04:24:42;;;;;;;5.07;3.33;;;3.00;99.90;;;;;;4975346;28;20202;-77
2022/04/19 04:27:09;;;;;;;5.17;3.63;;;3.00;99.90;;;;;;4975704;28;20553;-70
2022/04/19 04:29:36;;;;;;;6.23;3.40;;;3.00;99.90;;;;;;4989841;28;20215;-71
2022/04/19 04:32:04;;;;;;;5.13;3.70;;;3.00;99.90;;;;;;4974395;28;20314;-71
2022/04/19 04:34:31;;;;;;;5.17;3.80;;;3.00;99.90;;;;;;4992415;28;20215;-83
2022/04/19 04:36:58;;;;;;;6.07;3.40;;;3.00;99.90;;;;;;4995882;28;20649;-79
2022/04/19 04:39:25;;;;;;;4.47;3.43;;;3.00;99.90;;;;;;4991756;28;20204;-82
2022/04/19 04:41:52;;;;;;;6.23;4.07;;;3.10;99.90;;;;;;4989743;28;20227;-81
2022/04/19 04:44:18;;;;;;;6.13;4.30;;;3.20;99.90;;;;;;4990369;28;20212;-81
2022/04/19 04:49:36;;;;;;;5.90;3.93;;;3.20;99.90;;;;;;4974028;28;20236;-81
2022/04/19 04:52:05;;;;;;;4.63;3.80;;;3.20;99.90;;;;;;4973714;28;20565;-82
2022/04/19 04:54:32;;;;;;;8.13;4.00;;;3.20;99.90;;;;;;4974157;28;20221;-82
2022/04/19 04:56:58;;;;;;;7.17;4.67;;;3.30;99.90;;;;;;4990389;28;20206;-82
2022/04/19 04:59:26;;;;;;;6.87;4.43;;;3.20;99.90;;;;;;4965344;28;20257;-82
2022/04/19 05:01:53;;;;;;;6.50;4.80;;;3.30;99.90;;;;;;4955128;28;20195;-81
2022/04/19 05:04:20;;;;;;;6.70;4.57;;;3.20;99.90;;;;;;4971234;28;20207;-83
2022/04/19 05:06:46;;;;;;;8.17;5.67;;;3.30;99.90;;;;;;4974947;28;20562;-82
2022/04/19 05:09:13;;;;;;;8.13;5.63;;;3.30;99.90;;;;;;4973827;28;20654;-75
2022/04/19 05:11:40;;;;;;;7.90;6.07;;;3.30;99.90;;;;;;4963133;28;20633;-79
2022/04/19 05:14:08;;;;;;;7.63;5.97;;;3.20;99.90;;;;;;4968309;28;20195;-79
2022/04/19 05:16:35;;;;;;;9.17;6.20;;;3.20;99.90;;;;;;4974033;28;20205;-77
2022/04/19 05:19:03;;;;;;;8.93;6.03;;;3.20;99.90;;;;;;4973751;28;20277;-78
2022/04/19 05:21:30;;;;;;;8.00;6.07;;;3.30;99.90;;;;;;4964840;28;20679;-80
2022/04/19 05:23:57;;;;;;;8.97;6.17;;;3.30;99.90;;;;;;4954209;29;20214;-80
2022/04/19 05:26:28;;;;;;;7.30;5.53;;;3.30;99.90;;;;;;4954382;29;20649;-80
2022/04/19 05:28:55;;;;;;;7.03;5.50;;;3.40;99.90;;;;;;4954235;29;20304;-80
2022/04/19 05:31:22;;;;;;;8.50;5.43;;;3.40;99.90;;;;;;4953047;29;20198;-78
2022/04/19 05:33:49;;;;;;;8.20;6.07;;;3.40;99.90;;;;;;4962517;28;20230;-79
2022/04/19 05:36:16;;;;;;;8.83;6.40;;;3.40;99.90;;;;;;4965069;28;20313;-79
2022/04/19 05:38:43;;;;;;;9.70;6.60;;;3.40;99.90;;;;;;4973079;28;20239;-79
2022/04/19 05:41:10;;;;;;;9.47;5.90;;;3.40;99.90;;;;;;4968186;28;20583;-79
2022/04/19 05:43:38;;;;;;;9.77;6.70;;;3.40;99.90;;;;;;4961509;28;20678;-78
2022/04/19 05:46:04;;;;;;;9.50;6.37;;;3.40;99.90;;;;;;4974559;28;20198;-78
2022/04/19 05:48:32;;;;;;;9.00;6.07;;;3.50;99.90;;;;;;4971819;28;20222;-80
2022/04/19 05:51:00;;;;;;;9.30;6.73;;;3.60;99.90;;;;;;4968527;28;20541;-81
2022/04/19 05:53:27;;;;;;;9.87;6.50;;;3.60;99.90;;;;;;4953917;29;20214;-76
2022/04/19 05:55:54;;;;;;;8.60;6.10;;;3.60;99.90;;;;;;4954715;28;20630;-81
2022/04/19 05:58:21;;;;;;;9.03;6.30;;;3.60;99.90;;;;;;4953697;29;20222;-80
2022/04/19 06:00:48;;;;;;;8.30;6.30;;;3.60;99.90;;;;;;4969098;28;20870;-79
2022/04/19 06:06:00;;;;;;;9.07;6.70;;;3.60;99.90;;;;;;4964353;28;20219;-78
2022/04/19 06:08:27;;;;;;;9.03;6.90;;;3.70;99.90;;;;;;4966280;28;20229;-83
2022/04/19 06:10:54;;;;;;;9.73;7.50;;;3.60;99.90;;;;;;4973095;28;20570;-82
2022/04/19 06:13:20;;;;;;;10.20;7.53;;;3.70;99.90;;;;;;4972724;28;20208;-83
2022/04/19 06:15:47;;;;;;;10.03;7.73;;;3.70;99.90;;;;;;4973251;28;20286;-82
2022/04/19 06:18:14;;;;;;;12.27;8.73;;;3.70;99.90;;;;;;4973061;28;20752;-81
2022/04/19 06:20:41;;;;;;;13.73;8.57;;;3.70;99.90;;;;;;4956271;28;20207;-84
2022/04/19 06:23:09;;;;;;;12.17;9.00;;;3.60;99.90;;;;;;4972440;28;20201;-72
2022/04/19 06:25:36;;;;;;;15.97;9.47;;;3.70;99.90;;;;;;4972834;28;20202;-75
2022/04/19 06:28:03;;;;;;;12.37;8.90;;;3.70;99.90;;;;;;4981284;28;20207;-74
2022/04/19 06:30:30;;;;;;;13.60;9.20;;;3.80;99.90;;;;;;4963141;28;20197;-77
2022/04/19 06:32:57;;;;;;;14.20;8.70;;;3.80;99.90;;;;;;4955730;28;20205;-74
2022/04/19 06:35:24;;;;;;;13.37;9.13;;;3.80;99.90;;;;;;4953061;29;20206;-79
2022/04/19 06:37:50;;;;;;;11.93;8.73;;;3.80;99.90;;;;;;4953375;29;20228;-80
2022/04/19 06:40:17;;;;;;;11.40;8.03;;;3.90;99.90;;;;;;4952871;29;20296;-76
2022/04/19 06:42:44;;;;;;;11.40;8.50;;;4.00;99.90;;;;;;4951688;29;20694;-79
2022/04/19 06:45:12;;;;;;;11.67;8.33;;;4.10;99.90;;;;;;4954372;29;20648;-76
2022/04/19 06:47:39;;;;;;;10.97;7.97;;;4.10;99.90;;;;;;4953021;29;20216;-75
2022/04/19 06:50:06;;;;;;;9.53;7.30;;;4.20;99.90;;;;;;4941764;28;20203;-79
2022/04/19 06:52:34;;;;;;;9.03;7.17;;;4.30;99.90;;;;;;4970755;28;20292;-78
2022/04/19 06:55:02;;;;;;;10.60;7.57;;;4.30;99.90;;;;;;4972120;28;20649;-78
2022/04/19 06:57:34;;;;;;;10.67;7.60;;;4.40;99.90;;;;;;4972302;28;20207;-74
2022/04/19 07:00:01;;;;;;;10.13;7.13;;;4.50;99.90;;;;;;4963733;28;20232;-76
2022/04/19 07:02:27;;;;;;;10.30;7.20;;;4.50;99.90;;;;;;4969252;28;20282;-75
2022/04/19 07:04:55;;;;;;;10.73;6.80;;;4.70;99.90;;;;;;4975339;28;20240;-74
2022/04/19 07:07:23;;;;;;;8.60;6.63;;;4.80;99.90;;;;;;4963627;28;20190;-78
2022/04/19 07:09:50;;;;;;;8.03;6.87;;;4.70;99.90;;;;;;4959236;28;20205;-78
2022/04/19 07:12:19;;;;;;;8.87;6.70;;;4.80;99.90;;;;;;4974862;28;20211;-71
2022/04/19 07:14:46;;;;;;;7.80;5.83;;;4.80;99.90;;;;;;4975751;28;20736;-70
2022/04/19 07:17:13;;;;;;;7.60;5.93;;;4.90;99.90;;;;;;4976147;28;20293;-76
2022/04/19 07:28:10;;;;;;;7.77;5.30;;;5.00;99.90;;;;;;4975164;28;20233;-74
2022/04/19 07:30:37;;;;;;;9.90;5.73;;;5.00;99.90;;;;;;4975522;28;20729;-73
2022/04/19 07:33:05;;;;;;;7.07;5.60;;;4.90;99.90;;;;;;4974479;28;20197;-71
2022/04/19 07:35:35;;;;;;;6.97;5.43;;;5.00;99.90;;;;;;4975061;28;20207;-73
2022/04/19 07:38:09;;;;;;;7.90;6.10;;;5.00;99.90;;;;;;4975597;28;20222;-73
2022/04/19 07:40:40;;;;;;;7.60;5.23;;;4.90;99.90;;;;;;4976998;28;20198;-74
2022/04/19 07:43:11;;;;;;;7.27;5.63;;;4.90;99.90;;;;;;4988938;28;20699;-75
2022/04/19 07:45:38;;;;;;;8.27;6.10;;;4.90;99.90;;;;;;4957638;28;20219;-76
2022/04/19 07:48:06;;;;;;;7.63;5.80;;;5.00;99.90;;;;;;4965246;28;20196;-72
2022/04/19 07:50:38;;;;;;;7.87;5.70;;;5.10;99.90;;;;;;4969179;28;20385;-68
2022/04/19 07:53:05;;;;;;;8.47;6.03;;;5.10;99.90;;;;;;4964871;28;20196;-69
2022/04/19 07:55:32;;;;;;;8.73;6.20;;;5.20;99.90;;;;;;4964366;28;20253;-70
2022/04/19 07:57:59;;;;;;;6.57;4.90;;;5.30;99.90;;;;;;4960179;28;20647;-68
2022/04/19 08:00:33;;;;;;;8.20;5.80;;;5.30;99.90;;;;;;4964848;28;20256;-69
2022/04/19 08:03:03;;;;;;;8.30;5.60;;;5.30;99.90;;;;;;4971382;28;20206;-70
2022/04/19 08:05:31;;;;;;;7.90;5.30;;;5.30;99.90;;;;;;4969354;28;20207;-74
2022/04/19 08:07:58;;;;;;;8.17;5.53;;;5.40;99.90;;;;;;4960108;28;20288;-72
2022/04/19 08:10:25;;;;;;;8.17;5.50;;;5.50;99.90;;;;;;4972487;28;20233;-73
2022/04/19 08:12:52;;;;;;;7.30;5.23;;;5.60;99.90;;;;;;4975221;28;20286;-74
2022/04/19 08:15:20;;;;;;;8.10;5.33;;;5.50;99.90;;;;;;4962581;28;20212;-74
2022/04/19 08:17:47;;;;;;;7.43;5.57;;;5.50;99.90;;;;;;4974551;28;20194;-72
2022/04/19 08:20:14;;;;;;;7.10;5.27;;;5.50;99.90;;;;;;4960865;28;20196;-69
2022/04/19 08:22:42;;;;;;;6.83;5.00;;;5.50;99.90;;;;;;4967662;28;20239;-71
2022/04/19 08:25:10;;;;;;;7.37;5.23;;;5.30;99.90;;;;;;4968439;28;20225;-70
2022/04/19 08:27:42;;;;;;;8.83;5.80;;;5.30;99.90;;;;;;4960156;28;20289;-71
2022/04/19 08:30:20;;;;;;;7.83;5.47;;;5.40;99.90;;;;;;4959514;28;20210;-77
2022/04/19 08:33:47;;;;;;;8.53;5.10;;;5.40;99.90;;;;;;4966637;28;20200;-70
2022/04/19 08:36:25;;;;;;;8.00;5.60;;;5.40;99.90;;;;;;4957520;29;20247;-72
2022/04/19 08:38:53;;;;;;;7.30;5.17;;;5.40;99.90;;;;;;4974678;28;20227;-71
2022/04/19 08:41:21;;;;;;;8.37;5.50;;;5.40;99.90;;;;;;4962171;28;20194;-71
2022/04/19 08:43:52;;;;;;;7.60;5.10;;;5.40;99.90;;;;;;4987774;28;20226;-70
2022/04/19 08:46:19;;;;;;;6.93;5.00;;;5.30;99.90;;;;;;4960562;28;20192;-72
2022/04/19 08:48:47;;;;;;;7.90;5.50;;;5.30;99.90;;;;;;4968135;28;20191;-71
2022/04/19 08:51:19;;;;;;;6.20;4.70;;;5.30;99.90;;;;;;4967865;28;20197;-72
2022/04/19 08:59:35;;;;;;;6.63;4.73;;;5.50;99.90;;;;;;4967379;28;20243;-73
2022/04/19 09:02:05;;;;;;;6.77;4.50;;;5.60;99.90;;;;;;4975237;28;20204;-76
2022/04/19 09:04:33;;;;;;;6.50;4.73;;;5.70;99.90;;;;;;4968906;28;20188;-87
2022/04/19 09:07:02;;;;;;;7.37;4.63;;;5.80;99.90;;;;;;4967425;28;20302;-81
2022/04/19 09:09:34;;;;;;;6.10;4.60;;;5.80;99.90;;;;;;4960535;28;20196;-81
2022/04/19 09:12:15;;;;;;;6.13;4.57;;;5.90;99.90;;;;;;4973985;28;20212;-78
2022/04/19 09:14:55;;;;;;;6.37;4.23;;;5.90;99.90;;;;;;4967163;28;20195;-83
2022/04/19 09:17:31;;;;;;;5.80;4.23;;;6.10;99.90;;;;;;4954003;28;20570;-83
2022/04/19 09:20:08;;;;;;;6.60;4.50;;;6.30;99.90;;;;;;4965572;28;20244;-82
2022/04/19 09:22:37;;;;;;;7.07;4.10;;;6.50;99.90;;;;;;4972251;28;20196;-77
2022/04/19 09:25:14;;;;;;;6.87;4.57;;;6.60;99.90;;;;;;4966785;28;20197;-74
2022/04/19 09:27:42;;;;;;;6.47;4.77;;;6.70;99.90;;;;;;4974369;28;20247;-76
2022/04/19 09:30:23;;;;;;;6.20;4.30;;;6.60;99.90;;;;;;4958170;28;20195;-76
2022/04/19 09:33:08;;;;;;;6.50;4.23;;;6.70;99.90;;;;;;4965920;28;20205;-76
2022/04/19 09:35:50;;;;;;;6.40;4.13;;;6.80;99.90;;;;;;4962599;28;20228;-76
2022/04/19 09:38:46;;;;;;;5.10;3.63;;;6.90;99.90;;;;;;4959564;28;20218;-78
2022/04/19 09:41:31;;;;;;;6.50;4.33;;;7.00;99.90;;;;;;4955100;29;20207;-77
2022/04/19 09:44:16;;;;;;;5.20;3.67;;;6.90;99.90;;;;;;4959012;28;20222;-75
2022/04/19 09:47:04;;;;;;;5.30;4.00;;;6.90;99.90;;;;;;4966272;28;20213;-76
2022/04/19 09:49:41;;;;;;;5.73;4.00;;;6.90;99.90;;;;;;4985251;28;20200;-74
2022/04/19 09:52:36;;;;;;;6.53;4.00;;;6.90;99.90;;;;;;4955608;28;20202;-73
2022/04/19 09:55:08;;;;;;;8.23;4.10;;;7.00;99.90;;;;;;4954548;29;20669;-73
2022/04/19 09:57:38;;;;;;;6.30;3.77;;;7.10;99.90;;;;;;4973784;28;20196;-74
2022/04/19 10:00:13;;;;;;;6.03;3.80;;;7.10;99.90;;;;;;4970402;28;20230;-75
2022/04/19 10:08:21;;;;;;;7.20;4.07;;;7.10;99.90;;;;;;4975151;28;20537;-74
2022/04/19 10:10:50;;;;;;;5.40;4.03;;;7.10;99.90;;;;;;4965499;28;20383;-83
2022/04/19 10:13:20;;;;;;;6.07;4.23;;;7.00;99.90;;;;;;4983367;28;20197;-81
2022/04/19 10:15:48;;;;;;;5.20;3.90;;;7.10;99.90;;;;;;4957996;28;20248;-79
2022/04/19 10:18:30;;;;;;;6.80;4.30;;;7.10;99.90;;;;;;4970388;28;20197;-73
2022/04/19 10:21:00;;;;;;;5.43;3.97;;;7.00;99.90;;;;;;4973391;28;20208;-78
2022/04/19 10:23:40;;;;;;;5.13;4.00;;;6.90;99.90;;;;;;4974909;28;20186;-78
2022/04/19 10:26:16;;;;;;;6.13;4.40;;;7.00;99.90;;;;;;4953940;28;20289;-71
2022/04/19 10:28:45;;;;;;;8.23;5.40;;;7.00;99.90;;;;;;4962253;28;20568;-71
2022/04/19 10:31:13;;;;;;;7.17;4.87;;;7.00;99.90;;;;;;4961023;28;20213;-69
2022/04/19 10:33:48;;;;;;;6.97;5.20;;;7.00;99.90;;;;;;4961211;28;20272;-72
2022/04/19 10:36:34;;;;;;;9.50;4.80;;;6.80;99.90;;;;;;4969273;28;20233;-69
2022/04/19 10:39:22;;;;;;;8.93;4.80;;;6.90;99.90;;;;;;4969005;28;20216;-71
2022/04/19 10:42:00;;;;;;;7.73;5.00;;;6.80;99.90;;;;;;4956231;28;20662;-72
2022/04/19 10:44:48;;;;;;;7.00;4.30;;;6.80;99.90;;;;;;4956047;28;20310;-71
2022/04/19 10:47:23;;;;;;;6.80;4.10;;;6.80;99.90;;;;;;4969348;28;20269;-73
2022/04/19 10:50:06;;;;;;;4.57;3.77;;;6.70;99.90;;;;;;4966254;28;20197;-69
2022/04/19 10:52:39;;;;;;;7.23;3.90;;;6.60;99.90;;;;;;4956564;28;20225;-70
2022/04/19 10:55:17;;;;;;;6.23;4.10;;;6.50;99.90;;;;;;4963718;28;20197;-71
2022/04/19 10:58:08;;;;;;;5.83;4.20;;;6.50;99.90;;;;;;4956707;28;20198;-72
2022/04/19 11:00:36;;;;;;;5.63;4.13;;;6.60;99.90;;;;;;4956677;28;20225;-75
2022/04/19 11:03:26;;;;;;;5.83;4.27;;;6.50;99.90;;;;;;4967150;28;20240;-74
2022/04/19 11:05:55;;;;;;;5.70;4.60;;;6.60;99.90;;;;;;4972816;28;20208;-73
2022/04/19 11:08:26;;;;;;;5.40;4.30;;;6.50;99.90;;;;;;4958339;28;20193;-73
2022/04/19 11:10:58;;;;;;;5.93;4.37;;;6.50;99.90;;;;;;4953478;29;20209;-75
2022/04/19 11:13:31;;;;;;;5.07;4.20;;;6.70;99.90;;;;;;4966521;28;20188;-73
2022/04/19 11:16:15;;;;;;;4.97;3.47;;;6.60;99.90;;;;;;4961943;28;20206;-72
2022/04/19 11:18:55;;;;;;;4.83;3.90;;;6.70;99.90;;;;;;4953945;29;20260;-72
2022/04/19 11:21:59;;;;;;;6.07;4.00;;;6.70;99.90;;;;;;4966391;28;20234;-75
2022/04/19 11:24:57;;;;;;;4.93;3.93;;;6.80;99.90;;;;;;4954631;29;20277;-76
2022/04/19 11:27:54;;;;;;;5.87;4.20;;;7.00;99.90;;;;;;4910908;29;20707;-77
2022/04/19 11:30:25;;;;;;;5.93;4.40;;;7.00;99.90;;;;;;4917709;29;20557;-74
2022/04/19 11:32:59;;;;;;;7.10;4.83;;;7.30;99.90;;;;;;4916549;29;20203;-78
2022/04/19 11:35:31;;;;;;;6.17;4.60;;;7.40;99.90;;;;;;4933219;29;20215;-76
2022/04/19 11:38:15;;;;;;;9.03;4.67;;;7.40;99.90;;;;;;4933507;29;20281;-79
2022/04/19 11:46:44;;;;;;;5.80;4.13;;;7.80;99.90;;;;;;4898881;29;20202;-77
2022/04/19 11:49:30;;;;;;;5.07;4.00;;;7.90;99.90;;;;;;4928368;29;20191;-77
2022/04/19 11:52:12;;;;;;;4.80;3.90;;;8.20;99.90;;;;;;4905635;29;20326;-72
2022/04/19 11:54:39;;;;;;;5.27;4.10;;;8.30;99.90;;;;;;4921160;29;20199;-71
2022/04/19 11:57:10;;;;;;;5.70;4.30;;;8.30;99.90;;;;;;4917847;29;20231;-75
2022/04/19 11:59:42;;;;;;;5.17;4.00;;;8.40;99.90;;;;;;4915500;29;20230;-73
2022/04/19 12:02:19;;;;;;;5.70;4.30;;;8.50;99.90;;;;;;4920860;29;20203;-71
2022/04/19 12:04:52;;;;;;;5.60;4.13;;;8.60;99.90;;;;;;4968687;28;20225;-70
2022/04/19 12:07:20;;;;;;;5.50;3.93;;;8.60;99.90;;;;;;4963986;28;20202;-70
2022/04/19 12:09:56;;;;;;;5.93;4.50;;;8.70;99.90;;;;;;4972399;28;20269;-77
2022/04/19 12:12:24;;;;;;;5.93;4.63;;;8.90;99.90;;;;;;4978207;28;20277;-79
2022/04/19 12:14:52;;;;;;;5.53;4.20;;;9.10;99.90;;;;;;4967493;28;20233;-70
2022/04/19 12:17:26;;;;;;;5.73;4.40;;;9.20;99.90;;;;;;4977476;28;20189;-72
2022/04/19 12:20:01;;;;;;;6.07;4.10;;;9.10;99.90;;;;;;4960965;28;20272;-70
2022/04/19 12:22:33;;;;;;;4.40;3.97;;;9.00;99.90;;;;;;4956314;29;20584;-70
2022/04/19 12:25:02;;;;;;;6.90;4.60;;;8.80;99.90;;;;;;4965576;28;20225;-71
2022/04/19 12:27:31;;;;;;;5.90;4.30;;;8.70;99.90;;;;;;4964019;28;20595;-72
2022/04/19 12:30:04;;;;;;;5.33;4.20;;;8.60;99.90;;;;;;4973522;28;20256;-72
2022/04/19 12:32:50;;;;;;;7.33;4.63;;;8.50;99.90;;;;;;4969722;28;20278;-69
2022/04/19 12:35:35;;;;;;;5.20;4.20;;;8.60;99.90;;;;;;4968883;28;20649;-73
2022/04/19 12:38:16;;;;;;;5.30;4.27;;;8.50;99.90;;;;;;4973709;28;20703;-71
2022/04/19 12:40:45;;;;;;;4.97;4.00;;;8.50;99.90;;;;;;4971967;28;20353;-73
2022/04/19 12:43:18;;;;;;;4.77;3.70;;;8.40;99.90;;;;;;4966681;28;20213;-73
2022/04/19 12:45:48;;;;;;;4.93;4.07;;;8.40;99.90;;;;;;4960912;28;20201;-74
2022/04/19 12:48:22;;;;;;;5.83;4.20;;;8.40;99.90;;;;;;4974989;28;20350;-73
2022/04/19 12:51:03;;;;;;;5.40;3.90;;;8.50;99.90;;;;;;4970528;28;20189;-71
2022/04/19 12:53:33;;;;;;;5.33;3.93;;;8.60;99.90;;;;;;4963707;28;20241;-70
2022/04/19 12:59:24;;;;;;;6.27;4.27;;;8.80;99.90;;;;;;4965248;28;20257;-72
2022/04/19 13:01:52;;;;;;;6.20;4.03;;;8.90;99.90;;;;;;4969280;28;20235;-72
2022/04/19 13:04:19;;;;;;;5.47;4.00;;;8.60;99.90;;;;;;4971697;28;20246;-73
2022/04/19 13:12:26;;;;;;;5.73;3.47;;;8.50;99.90;;;;;;4954976;29;20199;-73
2022/04/19 13:14:57;;;;;;;5.70;3.67;;;8.50;99.90;;;;;;4954535;28;20583;-73
2022/04/19 13:17:31;;;;;;;3.63;3.07;;;8.50;99.90;;;;;;4953548;29;20264;-72
2022/04/19 13:19:58;;;;;;;4.70;3.30;;;8.80;99.90;;;;;;4956140;28;20262;-73
2022/04/19 13:22:43;;;;;;;4.13;3.10;;;9.10;99.90;;;;;;4970956;28;20604;-73
2022/04/19 13:25:29;;;;;;;3.10;2.80;;;9.30;99.90;;;;;;4955372;28;20217;-74
2022/04/19 13:27:58;;;;;;;3.47;2.90;;;9.50;99.90;;;;;;4924018;29;20281;-76
2022/04/19 13:30:25;;;;;;;3.60;2.90;;;9.60;99.90;;;;;;4957545;28;20663;-72
2022/04/19 13:32:53;;;;;;;3.27;2.83;;;9.80;99.90;;;;;;4955729;28;20194;-71
2022/04/19 13:35:20;;;;;;;3.63;2.90;;;9.70;99.90;;;;;;4964119;28;20633;-72
2022/04/19 13:40:32;;;;;;;3.10;2.57;;;9.50;99.90;;;;;;4974517;28;20627;-72
2022/04/19 13:43:00;;;;;;;3.60;2.80;;;9.60;99.90;;;;;;4965126;28;20248;-72
2022/04/19 13:45:33;;;;;;;4.10;3.13;;;9.70;99.90;;;;;;4969597;28;20202;-73
2022/04/19 13:48:01;;;;;;;3.63;2.87;;;9.70;99.90;;;;;;4971599;28;20318;-71
2022/04/19 13:50:28;;;;;;;4.73;3.20;;;9.90;99.90;;;;;;4968095;28;20604;-71
2022/04/19 13:53:01;;;;;;;4.20;2.87;;;10.20;99.90;;;;;;4964786;28;20218;-72
2022/04/19 13:55:28;;;;;;;4.80;3.30;;;10.30;99.90;;;;;;4957481;28;20224;-73
2022/04/19 13:57:55;;;;;;;3.63;2.90;;;10.30;99.90;;;;;;4971332;28;20189;-76
2022/04/19 14:00:23;;;;;;;4.97;2.93;;;10.40;99.90;;;;;;4972578;28;20673;-74
2022/04/19 14:02:50;;;;;;;4.00;3.10;;;10.60;99.90;;;;;;4968847;28;20190;-73